sensor_id;sensor_type;location;lat;lon;timestamp;P1;durP1;ratioP1;P2;durP2;ratioP2
26277;SDS011;14000;52.056;8.510;2023-06-01T00:01:42;32.13;;;14.90;;
26277;SDS011;14000;52.056;8.510;2023-06-01T00:04:08;27.77;;;14.33;;
26277;SDS011;14000;52.056;8.510;2023-06-01T00:06:34;30.83;;;16.70;;
26277;SDS011;14000;52.056;8.510;2023-06-01T00:09:00;41.47;;;17.20;;
26277;SDS011;14000;52.056;8.510;2023-06-01T00:11:27;27.03;;;14.77;;
26277;SDS011;14000;52.056;8.510;2023-06-01T00:13:53;32.43;;;14.90;;
26277;SDS011;14000;52.056;8.510;2023-06-01T00:16:19;28.73;;;14.63;;
26277;SDS011;14000;52.056;8.510;2023-06-01T00:18:45;30.33;;;14.73;;
26277;SDS011;14000;52.056;8.510;2023-06-01T00:21:11;32.40;;;14.80;;
26277;SDS011;14000;52.056;8.510;2023-06-01T00:23:37;32.53;;;14.77;;
26277;SDS011;14000;52.056;8.510;2023-06-01T00:26:05;33.07;;;14.83;;
26277;SDS011;14000;52.056;8.510;2023-06-01T00:28:34;33.00;;;14.17;;
26277;SDS011;14000;52.056;8.510;2023-06-01T00:31:00;27.50;;;14.00;;
26277;SDS011;14000;52.056;8.510;2023-06-01T00:33:25;33.17;;;14.57;;
26277;SDS011;14000;52.056;8.510;2023-06-01T00:35:51;32.20;;;15.23;;
26277;SDS011;14000;52.056;8.510;2023-06-01T00:38:17;35.27;;;15.33;;
26277;SDS011;14000;52.056;8.510;2023-06-01T00:40:43;28.13;;;14.13;;
26277;SDS011;14000;52.056;8.510;2023-06-01T00:43:09;30.97;;;14.00;;
26277;SDS011;14000;52.056;8.510;2023-06-01T00:45:35;25.90;;;13.13;;
26277;SDS011;14000;52.056;8.510;2023-06-01T00:48:02;25.60;;;11.37;;
26277;SDS011;14000;52.056;8.510;2023-06-01T00:50:28;23.63;;;12.07;;
26277;SDS011;14000;52.056;8.510;2023-06-01T00:52:54;26.30;;;12.23;;
26277;SDS011;14000;52.056;8.510;2023-06-01T00:55:20;27.00;;;12.00;;
26277;SDS011;14000;52.056;8.510;2023-06-01T00:57:46;29.50;;;11.67;;
26277;SDS011;14000;52.056;8.510;2023-06-01T01:00:13;30.00;;;13.07;;
26277;SDS011;14000;52.056;8.510;2023-06-01T01:02:40;26.23;;;13.10;;
26277;SDS011;14000;52.056;8.510;2023-06-01T01:05:07;23.23;;;11.20;;
26277;SDS011;14000;52.056;8.510;2023-06-01T01:10:33;24.53;;;11.80;;
26277;SDS011;14000;52.056;8.510;2023-06-01T01:18:46;26.90;;;12.27;;
26277;SDS011;14000;52.056;8.510;2023-06-01T01:21:25;28.13;;;13.30;;
26277;SDS011;14000;52.056;8.510;2023-06-01T01:26:53;21.83;;;10.90;;
26277;SDS011;14000;52.056;8.510;2023-06-01T01:29:40;27.27;;;11.17;;
26277;SDS011;14000;52.056;8.510;2023-06-01T01:32:08;24.47;;;10.87;;
26277;SDS011;14000;52.056;8.510;2023-06-01T01:34:35;26.47;;;10.67;;
26277;SDS011;14000;52.056;8.510;2023-06-01T01:37:05;27.53;;;11.40;;
26277;SDS011;14000;52.056;8.510;2023-06-01T01:39:30;21.87;;;10.17;;
26277;SDS011;14000;52.056;8.510;2023-06-01T01:41:56;27.20;;;10.83;;
26277;SDS011;14000;52.056;8.510;2023-06-01T01:44:21;22.93;;;10.40;;
26277;SDS011;14000;52.056;8.510;2023-06-01T01:49:36;25.00;;;10.67;;
26277;SDS011;14000;52.056;8.510;2023-06-01T01:52:14;21.63;;;10.63;;
26277;SDS011;14000;52.056;8.510;2023-06-01T01:54:44;25.80;;;10.70;;
26277;SDS011;14000;52.056;8.510;2023-06-01T01:57:13;22.87;;;10.80;;
26277;SDS011;14000;52.056;8.510;2023-06-01T01:59:40;24.23;;;10.57;;
26277;SDS011;14000;52.056;8.510;2023-06-01T02:02:07;26.40;;;10.23;;
26277;SDS011;14000;52.056;8.510;2023-06-01T02:04:32;23.63;;;10.03;;
26277;SDS011;14000;52.056;8.510;2023-06-01T02:07:03;22.70;;;9.80;;
26277;SDS011;14000;52.056;8.510;2023-06-01T02:09:29;22.03;;;10.73;;
26277;SDS011;14000;52.056;8.510;2023-06-01T02:11:55;22.47;;;11.00;;
26277;SDS011;14000;52.056;8.510;2023-06-01T02:14:21;23.87;;;10.30;;
26277;SDS011;14000;52.056;8.510;2023-06-01T02:16:46;24.93;;;10.50;;
26277;SDS011;14000;52.056;8.510;2023-06-01T02:19:12;23.00;;;10.40;;
26277;SDS011;14000;52.056;8.510;2023-06-01T02:21:40;23.43;;;10.33;;
26277;SDS011;14000;52.056;8.510;2023-06-01T02:24:07;25.37;;;11.43;;
26277;SDS011;14000;52.056;8.510;2023-06-01T02:26:33;25.70;;;12.00;;
26277;SDS011;14000;52.056;8.510;2023-06-01T02:28:59;23.90;;;11.10;;
26277;SDS011;14000;52.056;8.510;2023-06-01T02:31:27;27.87;;;11.40;;
26277;SDS011;14000;52.056;8.510;2023-06-01T02:33:53;26.90;;;11.53;;
26277;SDS011;14000;52.056;8.510;2023-06-01T02:36:18;25.37;;;11.93;;
26277;SDS011;14000;52.056;8.510;2023-06-01T02:38:44;27.17;;;12.70;;
26277;SDS011;14000;52.056;8.510;2023-06-01T02:41:10;23.90;;;11.90;;
26277;SDS011;14000;52.056;8.510;2023-06-01T02:43:37;25.50;;;11.53;;
26277;SDS011;14000;52.056;8.510;2023-06-01T02:46:02;28.17;;;11.00;;
26277;SDS011;14000;52.056;8.510;2023-06-01T02:48:30;24.10;;;11.77;;
26277;SDS011;14000;52.056;8.510;2023-06-01T02:50:56;28.13;;;12.83;;
26277;SDS011;14000;52.056;8.510;2023-06-01T02:53:21;27.93;;;12.50;;
26277;SDS011;14000;52.056;8.510;2023-06-01T02:55:47;29.27;;;13.20;;
26277;SDS011;14000;52.056;8.510;2023-06-01T02:58:13;29.27;;;13.30;;
26277;SDS011;14000;52.056;8.510;2023-06-01T03:00:42;31.17;;;13.80;;
26277;SDS011;14000;52.056;8.510;2023-06-01T03:03:08;23.33;;;12.63;;
26277;SDS011;14000;52.056;8.510;2023-06-01T03:05:33;28.40;;;12.60;;
26277;SDS011;14000;52.056;8.510;2023-06-01T03:08:00;24.30;;;13.50;;
26277;SDS011;14000;52.056;8.510;2023-06-01T03:10:26;29.67;;;13.17;;
26277;SDS011;14000;52.056;8.510;2023-06-01T03:12:51;28.67;;;14.07;;
26277;SDS011;14000;52.056;8.510;2023-06-01T03:15:17;29.83;;;14.17;;
26277;SDS011;14000;52.056;8.510;2023-06-01T03:17:43;26.77;;;14.77;;
26277;SDS011;14000;52.056;8.510;2023-06-01T03:20:08;26.77;;;13.53;;
26277;SDS011;14000;52.056;8.510;2023-06-01T03:22:40;29.33;;;14.10;;
26277;SDS011;14000;52.056;8.510;2023-06-01T03:25:09;25.27;;;13.87;;
26277;SDS011;14000;52.056;8.510;2023-06-01T03:27:37;25.93;;;14.17;;
26277;SDS011;14000;52.056;8.510;2023-06-01T03:30:06;31.57;;;15.40;;
26277;SDS011;14000;52.056;8.510;2023-06-01T03:32:36;24.87;;;13.97;;
26277;SDS011;14000;52.056;8.510;2023-06-01T03:35:02;29.10;;;14.60;;
26277;SDS011;14000;52.056;8.510;2023-06-01T03:37:29;31.57;;;16.50;;
26277;SDS011;14000;52.056;8.510;2023-06-01T03:39:54;28.67;;;15.00;;
26277;SDS011;14000;52.056;8.510;2023-06-01T03:42:20;29.97;;;15.50;;
26277;SDS011;14000;52.056;8.510;2023-06-01T03:44:46;26.93;;;15.23;;
26277;SDS011;14000;52.056;8.510;2023-06-01T03:47:11;29.10;;;14.73;;
26277;SDS011;14000;52.056;8.510;2023-06-01T03:49:39;33.47;;;14.30;;
26277;SDS011;14000;52.056;8.510;2023-06-01T03:52:05;29.53;;;14.17;;
26277;SDS011;14000;52.056;8.510;2023-06-01T03:54:30;26.77;;;13.63;;
26277;SDS011;14000;52.056;8.510;2023-06-01T03:56:56;23.40;;;13.10;;
26277;SDS011;14000;52.056;8.510;2023-06-01T03:59:22;28.10;;;14.50;;
26277;SDS011;14000;52.056;8.510;2023-06-01T04:01:48;28.47;;;14.73;;
26277;SDS011;14000;52.056;8.510;2023-06-01T04:04:14;27.60;;;14.60;;
26277;SDS011;14000;52.056;8.510;2023-06-01T04:06:41;30.53;;;15.30;;
26277;SDS011;14000;52.056;8.510;2023-06-01T04:09:10;31.77;;;15.43;;
26277;SDS011;14000;52.056;8.510;2023-06-01T04:11:36;29.17;;;15.37;;
26277;SDS011;14000;52.056;8.510;2023-06-01T04:14:03;30.77;;;16.70;;
26277;SDS011;14000;52.056;8.510;2023-06-01T04:16:29;30.97;;;16.53;;
26277;SDS011;14000;52.056;8.510;2023-06-01T04:18:54;27.60;;;14.87;;
26277;SDS011;14000;52.056;8.510;2023-06-01T04:21:22;31.43;;;17.07;;
26277;SDS011;14000;52.056;8.510;2023-06-01T04:23:49;30.67;;;17.33;;
26277;SDS011;14000;52.056;8.510;2023-06-01T04:26:15;33.67;;;16.33;;
26277;SDS011;14000;52.056;8.510;2023-06-01T04:28:43;32.53;;;16.83;;
26277;SDS011;14000;52.056;8.510;2023-06-01T04:31:10;32.20;;;17.63;;
26277;SDS011;14000;52.056;8.510;2023-06-01T04:33:42;31.93;;;16.37;;
26277;SDS011;14000;52.056;8.510;2023-06-01T04:36:10;25.27;;;14.07;;
26277;SDS011;14000;52.056;8.510;2023-06-01T04:38:39;35.27;;;16.63;;
26277;SDS011;14000;52.056;8.510;2023-06-01T04:41:06;29.40;;;16.57;;
26277;SDS011;14000;52.056;8.510;2023-06-01T04:43:35;28.63;;;16.10;;
26277;SDS011;14000;52.056;8.510;2023-06-01T04:46:03;32.17;;;16.00;;
26277;SDS011;14000;52.056;8.510;2023-06-01T04:48:30;26.80;;;15.20;;
26277;SDS011;14000;52.056;8.510;2023-06-01T04:50:57;34.23;;;15.57;;
26277;SDS011;14000;52.056;8.510;2023-06-01T04:53:24;31.30;;;14.10;;
26277;SDS011;14000;52.056;8.510;2023-06-01T04:55:50;35.20;;;16.30;;
26277;SDS011;14000;52.056;8.510;2023-06-01T04:58:15;30.57;;;16.47;;
26277;SDS011;14000;52.056;8.510;2023-06-01T05:00:41;34.27;;;16.97;;
26277;SDS011;14000;52.056;8.510;2023-06-01T05:03:07;33.50;;;16.80;;
26277;SDS011;14000;52.056;8.510;2023-06-01T05:05:33;30.57;;;16.73;;
26277;SDS011;14000;52.056;8.510;2023-06-01T05:07:58;34.93;;;17.87;;
26277;SDS011;14000;52.056;8.510;2023-06-01T05:10:24;34.83;;;17.77;;
26277;SDS011;14000;52.056;8.510;2023-06-01T05:12:50;34.70;;;16.67;;
26277;SDS011;14000;52.056;8.510;2023-06-01T05:15:15;34.70;;;19.30;;
26277;SDS011;14000;52.056;8.510;2023-06-01T05:17:44;34.10;;;17.87;;
26277;SDS011;14000;52.056;8.510;2023-06-01T05:20:09;34.83;;;18.23;;
26277;SDS011;14000;52.056;8.510;2023-06-01T05:22:36;32.87;;;17.70;;
26277;SDS011;14000;52.056;8.510;2023-06-01T05:25:02;31.13;;;18.67;;
26277;SDS011;14000;52.056;8.510;2023-06-01T05:27:30;34.17;;;18.53;;
26277;SDS011;14000;52.056;8.510;2023-06-01T05:29:56;36.43;;;18.63;;
26277;SDS011;14000;52.056;8.510;2023-06-01T05:32:21;30.73;;;17.60;;
26277;SDS011;14000;52.056;8.510;2023-06-01T05:34:47;33.23;;;18.67;;
26277;SDS011;14000;52.056;8.510;2023-06-01T05:37:12;35.63;;;18.57;;
26277;SDS011;14000;52.056;8.510;2023-06-01T05:39:38;42.00;;;20.70;;
26277;SDS011;14000;52.056;8.510;2023-06-01T05:42:04;37.97;;;20.63;;
26277;SDS011;14000;52.056;8.510;2023-06-01T05:44:31;39.37;;;20.97;;
26277;SDS011;14000;52.056;8.510;2023-06-01T05:46:56;37.40;;;20.73;;
26277;SDS011;14000;52.056;8.510;2023-06-01T05:49:22;29.17;;;17.43;;
26277;SDS011;14000;52.056;8.510;2023-06-01T05:51:48;39.70;;;21.30;;
26277;SDS011;14000;52.056;8.510;2023-06-01T05:54:13;35.00;;;19.57;;
26277;SDS011;14000;52.056;8.510;2023-06-01T05:56:39;41.07;;;21.03;;
26277;SDS011;14000;52.056;8.510;2023-06-01T05:59:07;37.33;;;19.83;;
26277;SDS011;14000;52.056;8.510;2023-06-01T06:01:33;36.33;;;19.70;;
26277;SDS011;14000;52.056;8.510;2023-06-01T06:04:00;39.93;;;20.60;;
26277;SDS011;14000;52.056;8.510;2023-06-01T06:06:26;35.13;;;18.40;;
26277;SDS011;14000;52.056;8.510;2023-06-01T06:08:52;32.77;;;17.90;;
26277;SDS011;14000;52.056;8.510;2023-06-01T06:11:18;39.10;;;18.20;;
26277;SDS011;14000;52.056;8.510;2023-06-01T06:13:43;35.53;;;18.90;;
26277;SDS011;14000;52.056;8.510;2023-06-01T06:16:09;32.00;;;16.33;;
26277;SDS011;14000;52.056;8.510;2023-06-01T06:18:35;29.40;;;15.70;;
26277;SDS011;14000;52.056;8.510;2023-06-01T06:21:00;33.93;;;16.83;;
26277;SDS011;14000;52.056;8.510;2023-06-01T06:23:26;31.67;;;16.20;;
26277;SDS011;14000;52.056;8.510;2023-06-01T06:25:52;31.23;;;16.33;;
26277;SDS011;14000;52.056;8.510;2023-06-01T06:28:18;34.23;;;15.67;;
26277;SDS011;14000;52.056;8.510;2023-06-01T06:30:43;27.30;;;15.53;;
26277;SDS011;14000;52.056;8.510;2023-06-01T06:33:09;29.03;;;13.73;;
26277;SDS011;14000;52.056;8.510;2023-06-01T06:35:35;34.90;;;15.37;;
26277;SDS011;14000;52.056;8.510;2023-06-01T06:38:01;31.13;;;14.97;;
26277;SDS011;14000;52.056;8.510;2023-06-01T06:40:27;34.03;;;17.17;;
26277;SDS011;14000;52.056;8.510;2023-06-01T06:42:52;29.63;;;14.73;;
26277;SDS011;14000;52.056;8.510;2023-06-01T06:45:18;35.57;;;16.03;;
26277;SDS011;14000;52.056;8.510;2023-06-01T06:47:44;34.53;;;16.73;;
26277;SDS011;14000;52.056;8.510;2023-06-01T06:50:10;29.27;;;16.07;;
26277;SDS011;14000;52.056;8.510;2023-06-01T06:52:38;30.00;;;15.27;;
26277;SDS011;14000;52.056;8.510;2023-06-01T06:55:03;31.97;;;16.17;;
26277;SDS011;14000;52.056;8.510;2023-06-01T06:57:29;31.90;;;16.43;;
26277;SDS011;14000;52.056;8.510;2023-06-01T06:59:55;30.80;;;15.00;;
26277;SDS011;14000;52.056;8.510;2023-06-01T07:02:21;28.40;;;15.50;;
26277;SDS011;14000;52.056;8.510;2023-06-01T07:04:46;32.07;;;15.47;;
26277;SDS011;14000;52.056;8.510;2023-06-01T07:07:13;32.80;;;16.03;;
26277;SDS011;14000;52.056;8.510;2023-06-01T07:09:39;27.77;;;13.80;;
26277;SDS011;14000;52.056;8.510;2023-06-01T07:12:05;30.40;;;13.53;;
26277;SDS011;14000;52.056;8.510;2023-06-01T07:14:31;29.13;;;13.93;;
26277;SDS011;14000;52.056;8.510;2023-06-01T07:16:57;29.90;;;13.60;;
26277;SDS011;14000;52.056;8.510;2023-06-01T07:19:22;26.70;;;13.53;;
26277;SDS011;14000;52.056;8.510;2023-06-01T07:21:48;26.37;;;13.30;;
26277;SDS011;14000;52.056;8.510;2023-06-01T07:24:17;29.87;;;14.77;;
26277;SDS011;14000;52.056;8.510;2023-06-01T07:26:43;26.83;;;12.63;;
26277;SDS011;14000;52.056;8.510;2023-06-01T07:29:09;26.60;;;14.30;;
26277;SDS011;14000;52.056;8.510;2023-06-01T07:31:36;30.10;;;15.27;;
26277;SDS011;14000;52.056;8.510;2023-06-01T07:34:03;33.37;;;16.87;;
26277;SDS011;14000;52.056;8.510;2023-06-01T07:36:29;34.40;;;16.03;;
26277;SDS011;14000;52.056;8.510;2023-06-01T07:38:58;29.97;;;14.33;;
26277;SDS011;14000;52.056;8.510;2023-06-01T07:41:24;31.03;;;15.63;;
26277;SDS011;14000;52.056;8.510;2023-06-01T07:43:50;33.13;;;15.87;;
26277;SDS011;14000;52.056;8.510;2023-06-01T07:46:16;29.90;;;14.30;;
26277;SDS011;14000;52.056;8.510;2023-06-01T07:48:41;28.77;;;13.43;;
26277;SDS011;14000;52.056;8.510;2023-06-01T07:51:07;24.73;;;13.03;;
26277;SDS011;14000;52.056;8.510;2023-06-01T07:53:32;27.13;;;13.20;;
26277;SDS011;14000;52.056;8.510;2023-06-01T07:55:58;35.13;;;15.83;;
26277;SDS011;14000;52.056;8.510;2023-06-01T07:58:24;27.20;;;13.70;;
26277;SDS011;14000;52.056;8.510;2023-06-01T08:00:49;24.57;;;13.00;;
26277;SDS011;14000;52.056;8.510;2023-06-01T08:03:15;27.53;;;13.70;;
26277;SDS011;14000;52.056;8.510;2023-06-01T08:05:41;29.10;;;13.33;;
26277;SDS011;14000;52.056;8.510;2023-06-01T08:08:07;28.80;;;13.13;;
26277;SDS011;14000;52.056;8.510;2023-06-01T08:10:34;26.80;;;13.57;;
26277;SDS011;14000;52.056;8.510;2023-06-01T08:13:00;26.63;;;11.97;;
26277;SDS011;14000;52.056;8.510;2023-06-01T08:15:26;28.77;;;13.53;;
26277;SDS011;14000;52.056;8.510;2023-06-01T08:17:53;30.20;;;14.47;;
26277;SDS011;14000;52.056;8.510;2023-06-01T08:20:19;26.90;;;13.10;;
26277;SDS011;14000;52.056;8.510;2023-06-01T08:22:48;26.10;;;12.73;;
26277;SDS011;14000;52.056;8.510;2023-06-01T08:25:15;26.77;;;13.40;;
26277;SDS011;14000;52.056;8.510;2023-06-01T08:27:41;24.77;;;11.30;;
26277;SDS011;14000;52.056;8.510;2023-06-01T08:30:07;26.40;;;12.87;;
26277;SDS011;14000;52.056;8.510;2023-06-01T08:32:33;27.33;;;13.37;;
26277;SDS011;14000;52.056;8.510;2023-06-01T08:34:58;32.10;;;13.33;;
26277;SDS011;14000;52.056;8.510;2023-06-01T08:37:24;25.20;;;12.70;;
26277;SDS011;14000;52.056;8.510;2023-06-01T08:39:50;26.43;;;12.10;;
26277;SDS011;14000;52.056;8.510;2023-06-01T08:44:48;22.20;;;11.03;;
26277;SDS011;14000;52.056;8.510;2023-06-01T08:47:20;24.23;;;11.40;;
26277;SDS011;14000;52.056;8.510;2023-06-01T08:49:49;24.97;;;10.60;;
26277;SDS011;14000;52.056;8.510;2023-06-01T08:52:18;24.33;;;11.07;;
26277;SDS011;14000;52.056;8.510;2023-06-01T08:54:45;22.10;;;10.20;;
26277;SDS011;14000;52.056;8.510;2023-06-01T08:57:11;22.00;;;10.40;;
26277;SDS011;14000;52.056;8.510;2023-06-01T08:59:38;22.17;;;10.13;;
26277;SDS011;14000;52.056;8.510;2023-06-01T09:02:04;17.43;;;9.60;;
26277;SDS011;14000;52.056;8.510;2023-06-01T09:04:31;21.23;;;9.77;;
26277;SDS011;14000;52.056;8.510;2023-06-01T09:06:59;22.40;;;10.23;;
26277;SDS011;14000;52.056;8.510;2023-06-01T09:09:24;22.47;;;9.63;;
26277;SDS011;14000;52.056;8.510;2023-06-01T09:14:46;25.03;;;9.47;;
26277;SDS011;14000;52.056;8.510;2023-06-01T09:17:15;19.87;;;8.80;;
26277;SDS011;14000;52.056;8.510;2023-06-01T09:19:47;21.67;;;9.80;;
26277;SDS011;14000;52.056;8.510;2023-06-01T09:22:15;24.73;;;10.00;;
26277;SDS011;14000;52.056;8.510;2023-06-01T09:24:40;22.57;;;9.37;;
26277;SDS011;14000;52.056;8.510;2023-06-01T09:27:19;16.83;;;9.50;;
26277;SDS011;14000;52.056;8.510;2023-06-01T09:29:52;22.40;;;9.97;;
26277;SDS011;14000;52.056;8.510;2023-06-01T09:32:19;20.63;;;9.37;;
26277;SDS011;14000;52.056;8.510;2023-06-01T09:34:46;20.80;;;10.10;;
26277;SDS011;14000;52.056;8.510;2023-06-01T09:37:12;25.60;;;10.67;;
26277;SDS011;14000;52.056;8.510;2023-06-01T09:39:38;23.63;;;10.87;;
26277;SDS011;14000;52.056;8.510;2023-06-01T09:42:04;24.90;;;10.13;;
26277;SDS011;14000;52.056;8.510;2023-06-01T09:44:36;26.63;;;9.97;;
26277;SDS011;14000;52.056;8.510;2023-06-01T09:47:03;18.10;;;9.00;;
26277;SDS011;14000;52.056;8.510;2023-06-01T09:49:32;17.60;;;9.20;;
26277;SDS011;14000;52.056;8.510;2023-06-01T09:54:29;18.40;;;8.90;;
26277;SDS011;14000;52.056;8.510;2023-06-01T09:57:10;19.80;;;9.33;;
26277;SDS011;14000;52.056;8.510;2023-06-01T09:59:40;18.07;;;8.70;;
26277;SDS011;14000;52.056;8.510;2023-06-01T10:02:11;21.90;;;8.90;;
26277;SDS011;14000;52.056;8.510;2023-06-01T10:04:44;19.50;;;8.80;;
26277;SDS011;14000;52.056;8.510;2023-06-01T10:07:12;17.37;;;8.27;;
26277;SDS011;14000;52.056;8.510;2023-06-01T10:09:38;17.77;;;8.67;;
26277;SDS011;14000;52.056;8.510;2023-06-01T10:12:07;17.23;;;8.33;;
26277;SDS011;14000;52.056;8.510;2023-06-01T10:14:35;16.03;;;7.23;;
26277;SDS011;14000;52.056;8.510;2023-06-01T10:17:03;16.20;;;7.63;;
26277;SDS011;14000;52.056;8.510;2023-06-01T10:19:28;13.27;;;6.50;;
26277;SDS011;14000;52.056;8.510;2023-06-01T10:21:58;13.23;;;6.10;;
26277;SDS011;14000;52.056;8.510;2023-06-01T10:24:25;13.77;;;6.80;;
26277;SDS011;14000;52.056;8.510;2023-06-01T10:29:20;16.27;;;6.87;;
26277;SDS011;14000;52.056;8.510;2023-06-01T10:31:46;14.57;;;7.17;;
26277;SDS011;14000;52.056;8.510;2023-06-01T10:34:12;14.73;;;7.03;;
26277;SDS011;14000;52.056;8.510;2023-06-01T10:39:28;15.87;;;6.70;;
26277;SDS011;14000;52.056;8.510;2023-06-01T10:41:58;13.67;;;6.77;;
26277;SDS011;14000;52.056;8.510;2023-06-01T10:52:24;19.53;;;9.23;;
26277;SDS011;14000;52.056;8.510;2023-06-01T10:57:32;14.40;;;7.50;;
26277;SDS011;14000;52.056;8.510;2023-06-01T11:00:08;15.63;;;7.30;;
26277;SDS011;14000;52.056;8.510;2023-06-01T11:02:34;13.23;;;6.50;;
26277;SDS011;14000;52.056;8.510;2023-06-01T11:08:03;13.97;;;6.47;;
26277;SDS011;14000;52.056;8.510;2023-06-01T11:13:39;15.13;;;6.20;;
26277;SDS011;14000;52.056;8.510;2023-06-01T11:21:10;13.17;;;6.73;;
26277;SDS011;14000;52.056;8.510;2023-06-01T11:23:41;12.53;;;6.00;;
26277;SDS011;14000;52.056;8.510;2023-06-01T11:26:07;12.87;;;5.80;;
26277;SDS011;14000;52.056;8.510;2023-06-01T11:28:33;13.53;;;6.40;;
26277;SDS011;14000;52.056;8.510;2023-06-01T11:31:00;14.53;;;6.83;;
26277;SDS011;14000;52.056;8.510;2023-06-01T11:33:28;12.37;;;6.70;;
26277;SDS011;14000;52.056;8.510;2023-06-01T11:36:00;16.43;;;7.27;;
26277;SDS011;14000;52.056;8.510;2023-06-01T11:38:34;13.03;;;6.67;;
26277;SDS011;14000;52.056;8.510;2023-06-01T11:41:01;14.43;;;5.87;;
26277;SDS011;14000;52.056;8.510;2023-06-01T11:43:30;14.20;;;6.60;;
26277;SDS011;14000;52.056;8.510;2023-06-01T11:46:00;14.87;;;7.40;;
26277;SDS011;14000;52.056;8.510;2023-06-01T11:48:26;13.73;;;6.80;;
26277;SDS011;14000;52.056;8.510;2023-06-01T11:50:52;14.70;;;7.00;;
26277;SDS011;14000;52.056;8.510;2023-06-01T11:53:19;17.23;;;8.13;;
26277;SDS011;14000;52.056;8.510;2023-06-01T11:55:49;14.57;;;6.97;;
26277;SDS011;14000;52.056;8.510;2023-06-01T11:58:22;13.73;;;6.53;;
26277;SDS011;14000;52.056;8.510;2023-06-01T12:00:55;13.97;;;7.27;;
26277;SDS011;14000;52.056;8.510;2023-06-01T12:03:22;12.70;;;6.80;;
26277;SDS011;14000;52.056;8.510;2023-06-01T12:05:51;15.80;;;7.17;;
26277;SDS011;14000;52.056;8.510;2023-06-01T12:08:18;16.03;;;8.97;;
26277;SDS011;14000;52.056;8.510;2023-06-01T12:10:49;13.97;;;7.63;;
26277;SDS011;14000;52.056;8.510;2023-06-01T12:13:17;15.63;;;6.77;;
26277;SDS011;14000;52.056;8.510;2023-06-01T12:15:44;16.20;;;7.20;;
26277;SDS011;14000;52.056;8.510;2023-06-01T12:18:10;16.83;;;7.57;;
26277;SDS011;14000;52.056;8.510;2023-06-01T12:20:37;12.97;;;5.97;;
26277;SDS011;14000;52.056;8.510;2023-06-01T12:25:49;14.67;;;7.03;;
26277;SDS011;14000;52.056;8.510;2023-06-01T12:28:19;15.17;;;7.90;;
26277;SDS011;14000;52.056;8.510;2023-06-01T12:30:46;14.53;;;7.23;;
26277;SDS011;14000;52.056;8.510;2023-06-01T12:36:00;16.73;;;7.67;;
26277;SDS011;14000;52.056;8.510;2023-06-01T12:38:27;14.00;;;7.73;;
26277;SDS011;14000;52.056;8.510;2023-06-01T12:41:08;15.67;;;6.50;;
26277;SDS011;14000;52.056;8.510;2023-06-01T12:43:35;13.47;;;6.93;;
26277;SDS011;14000;52.056;8.510;2023-06-01T12:46:01;11.60;;;5.80;;
26277;SDS011;14000;52.056;8.510;2023-06-01T12:48:32;13.07;;;5.23;;
26277;SDS011;14000;52.056;8.510;2023-06-01T12:50:58;11.73;;;6.03;;
26277;SDS011;14000;52.056;8.510;2023-06-01T12:53:24;12.93;;;4.93;;
26277;SDS011;14000;52.056;8.510;2023-06-01T12:55:50;10.77;;;4.87;;
26277;SDS011;14000;52.056;8.510;2023-06-01T12:58:16;12.10;;;5.60;;
26277;SDS011;14000;52.056;8.510;2023-06-01T13:00:41;12.10;;;5.47;;
26277;SDS011;14000;52.056;8.510;2023-06-01T13:03:07;11.23;;;4.97;;
26277;SDS011;14000;52.056;8.510;2023-06-01T13:05:33;10.27;;;5.47;;
26277;SDS011;14000;52.056;8.510;2023-06-01T13:07:58;10.70;;;5.83;;
26277;SDS011;14000;52.056;8.510;2023-06-01T13:10:25;10.57;;;5.10;;
26277;SDS011;14000;52.056;8.510;2023-06-01T13:12:51;9.50;;;4.53;;
26277;SDS011;14000;52.056;8.510;2023-06-01T13:15:17;13.27;;;5.30;;
26277;SDS011;14000;52.056;8.510;2023-06-01T13:17:43;11.07;;;5.00;;
26277;SDS011;14000;52.056;8.510;2023-06-01T13:20:09;9.47;;;4.50;;
26277;SDS011;14000;52.056;8.510;2023-06-01T13:22:36;10.43;;;4.83;;
26277;SDS011;14000;52.056;8.510;2023-06-01T13:25:03;10.27;;;4.43;;
26277;SDS011;14000;52.056;8.510;2023-06-01T13:27:29;9.73;;;4.00;;
26277;SDS011;14000;52.056;8.510;2023-06-01T13:29:56;9.17;;;4.37;;
26277;SDS011;14000;52.056;8.510;2023-06-01T13:32:21;11.63;;;4.13;;
26277;SDS011;14000;52.056;8.510;2023-06-01T13:34:47;9.03;;;4.27;;
26277;SDS011;14000;52.056;8.510;2023-06-01T13:37:13;9.60;;;4.00;;
26277;SDS011;14000;52.056;8.510;2023-06-01T13:39:38;8.47;;;3.77;;
26277;SDS011;14000;52.056;8.510;2023-06-01T13:42:05;8.80;;;3.97;;
26277;SDS011;14000;52.056;8.510;2023-06-01T13:44:32;10.57;;;4.00;;
26277;SDS011;14000;52.056;8.510;2023-06-01T13:46:57;10.37;;;4.20;;
26277;SDS011;14000;52.056;8.510;2023-06-01T13:49:23;10.53;;;4.33;;
26277;SDS011;14000;52.056;8.510;2023-06-01T13:51:49;8.77;;;4.13;;
26277;SDS011;14000;52.056;8.510;2023-06-01T13:54:14;9.13;;;4.17;;
26277;SDS011;14000;52.056;8.510;2023-06-01T13:56:41;11.37;;;4.70;;
26277;SDS011;14000;52.056;8.510;2023-06-01T13:59:08;9.13;;;4.10;;
26277;SDS011;14000;52.056;8.510;2023-06-01T14:01:34;10.80;;;4.50;;
26277;SDS011;14000;52.056;8.510;2023-06-01T14:04:00;8.60;;;4.10;;
26277;SDS011;14000;52.056;8.510;2023-06-01T14:06:26;10.20;;;4.10;;
26277;SDS011;14000;52.056;8.510;2023-06-01T14:08:51;9.67;;;4.30;;
26277;SDS011;14000;52.056;8.510;2023-06-01T14:11:17;10.60;;;4.00;;
26277;SDS011;14000;52.056;8.510;2023-06-01T14:13:43;11.17;;;4.40;;
26277;SDS011;14000;52.056;8.510;2023-06-01T14:16:08;8.70;;;4.13;;
26277;SDS011;14000;52.056;8.510;2023-06-01T14:18:34;9.23;;;4.47;;
26277;SDS011;14000;52.056;8.510;2023-06-01T14:21:00;11.63;;;4.60;;
26277;SDS011;14000;52.056;8.510;2023-06-01T14:23:29;11.80;;;4.50;;
26277;SDS011;14000;52.056;8.510;2023-06-01T14:25:55;10.37;;;4.20;;
26277;SDS011;14000;52.056;8.510;2023-06-01T14:28:20;9.00;;;4.33;;
26277;SDS011;14000;52.056;8.510;2023-06-01T14:30:46;11.57;;;4.33;;
26277;SDS011;14000;52.056;8.510;2023-06-01T14:33:12;11.00;;;4.30;;
26277;SDS011;14000;52.056;8.510;2023-06-01T14:35:37;8.27;;;3.73;;
26277;SDS011;14000;52.056;8.510;2023-06-01T14:38:03;9.37;;;4.30;;
26277;SDS011;14000;52.056;8.510;2023-06-01T14:40:29;9.60;;;4.53;;
26277;SDS011;14000;52.056;8.510;2023-06-01T14:42:55;9.30;;;3.97;;
26277;SDS011;14000;52.056;8.510;2023-06-01T14:45:21;11.70;;;4.70;;
26277;SDS011;14000;52.056;8.510;2023-06-01T14:47:48;10.97;;;4.67;;
26277;SDS011;14000;52.056;8.510;2023-06-01T14:50:13;11.20;;;4.37;;
26277;SDS011;14000;52.056;8.510;2023-06-01T14:52:39;9.40;;;4.37;;
26277;SDS011;14000;52.056;8.510;2023-06-01T14:55:05;9.70;;;4.47;;
26277;SDS011;14000;52.056;8.510;2023-06-01T14:57:31;10.23;;;4.30;;
26277;SDS011;14000;52.056;8.510;2023-06-01T14:59:57;11.10;;;4.93;;
26277;SDS011;14000;52.056;8.510;2023-06-01T15:02:23;10.47;;;4.70;;
26277;SDS011;14000;52.056;8.510;2023-06-01T15:04:48;10.30;;;4.80;;
26277;SDS011;14000;52.056;8.510;2023-06-01T15:07:14;10.33;;;4.73;;
26277;SDS011;14000;52.056;8.510;2023-06-01T15:09:40;11.17;;;4.03;;
26277;SDS011;14000;52.056;8.510;2023-06-01T15:12:05;9.73;;;4.60;;
26277;SDS011;14000;52.056;8.510;2023-06-01T15:14:31;10.50;;;5.20;;
26277;SDS011;14000;52.056;8.510;2023-06-01T15:16:57;10.83;;;5.53;;
26277;SDS011;14000;52.056;8.510;2023-06-01T15:19:22;10.40;;;5.90;;
26277;SDS011;14000;52.056;8.510;2023-06-01T15:21:48;14.23;;;6.37;;